Latest Coastal Weather Observations for Gladstone

IDQ60701

Issued at 5:35 am EST Friday 1 August 2014 (issued every 10 minutes, with the page automatically refreshed every 10 minutes)

About coastal observations | Map of coastal stations | Coastal observations for QLD | Marine services | Other Formats
Station Details ID: 039123 Name: GLADSTONE RADAR Lat: -23.86 Lon: 151.26 Height: 74.5 m
Data from the previous 72 hours. | See also: Recent months at Gladstone
Date/Time
EST
Temp

°C
Wind Pressure Rain
since 9am
mm
Weather Cloud Vis
km
Sea
Height
m
Swell
Dir
 
Speed
knots
Gust
knots
hPa Trend Height
m
Period
s
Dir
01/05:30am 17.4 SW 4 7 1017.6 - 0.0 - - - - - - -
01/05:00am 18.1 SW 3 4 1017.3 - 0.0 - - - - - - -
01/04:30am 17.6 SW 3 4 1017.2 - 0.0 - - - - - - -
01/04:00am 17.4 SSW 4 5 1017.1 - 0.0 - - - - - - -
01/03:30am 18.0 SW 3 4 1017.4 - 0.0 - - - - - - -
01/03:00am 18.1 CALM 0 0 1017.4 - 0.0 - - - - - - -
01/02:30am 18.0 S 3 4 1017.8 - 0.0 - - - - - - -
01/02:00am 17.9 S 3 4 1017.9 - 0.0 - - - - - - -
01/01:30am 17.7 S 4 5 1018.1 - 0.0 - - - - - - -
01/01:00am 17.7 NE 3 4 1018.1 - 0.0 - - - - - - -
01/12:30am 18.0 CALM 0 0 1018.4 - 0.0 - - - - - - -
01/12:00am 18.2 WSW 0 3 1018.5 - 0.0 - - - - - - -
 
Date/Time
EST
Temp

°C
Wind Pressure Rain
since 9am
mm
Weather Cloud Vis
km
Sea
Height
m
Swell
Dir
 
Speed
knots
Gust
knots
hPa Trend Height
m
Period
s
Dir
31/11:30pm 18.1 SW 3 4 1018.7 - 0.0 - - - - - - -
31/11:00pm 18.2 SW 3 5 1018.7 - 0.0 - - - - - - -
31/10:30pm 18.2 WSW 3 4 1019.0 - 0.0 - - - - - - -
31/10:00pm 18.1 CALM 0 0 1019.0 - 0.0 - - - - - - -
31/09:30pm 18.4 NNW 2 4 1019.1 - 0.0 - - - - - - -
31/09:00pm 18.0 N 2 3 1018.9 - 0.0 - - - - - - -
31/08:30pm 17.8 ENE 3 3 1018.8 - 0.0 - - - - - - -
31/08:00pm 17.8 ENE 3 4 1018.6 - 0.0 - - - - - - -
31/07:30pm 18.0 ENE 4 4 1018.4 - 0.0 - - - - - - -
31/07:00pm 18.1 ENE 5 6 1018.0 - 0.0 - - - - - - -
31/06:30pm 18.2 NE 5 7 1017.9 - 0.0 - - - - - - -
31/06:00pm 18.4 NE 6 9 1017.7 - 0.0 - - - - - - -
31/05:30pm 19.0 NE 7 10 1017.5 - 0.0 - - - - - - -
31/05:00pm 19.8 NE 6 10 1017.5 - 0.0 - - - - - - -
31/04:30pm 21.2 NE 8 12 1017.3 - 0.0 - - - - - - -
31/04:00pm 21.8 NE 8 13 1017.1 - 0.0 - - - - - - -
31/03:30pm 22.7 NE 8 12 1017.2 - 0.0 - - - - - - -
31/03:00pm 23.2 ENE 9 12 1017.1 - 0.0 - - - - - - -
31/02:30pm 23.5 ENE 9 13 1017.3 - 0.0 - - - - - - -
31/02:00pm 22.6 NE 10 14 1017.6 - 0.0 - - - - - - -
31/01:30pm 23.2 NE 10 14 1018.1 - 0.0 - - - - - - -
31/01:00pm 24.8 NE 9 14 1018.5 - 0.0 - - - - - - -
31/12:30pm 24.5 NE 7 10 1019.2 - 0.0 - - - - - - -
31/12:00pm 25.3 NE 6 9 1019.6 - 0.0 - - - - - - -
31/11:30am 25.8 NE 6 9 1020.5 - 0.0 - - - - - - -
31/11:00am 23.5 N 3 7 1020.6 - 0.0 - - - - - - -
31/10:30am 22.7 NNE 1 4 1021.4 - 0.0 - - - - - - -
31/10:00am 22.0 NNW 2 5 1021.3 - 0.0 - - - - - - -
31/09:30am 20.6 CALM 0 0 1021.7 - 0.0 - - - - - - -
31/09:00am 18.1 SSW 2 4 1021.7 - 0.0 - - - - - - -
31/08:30am 16.2 CALM 0 3 1021.7 - 0.0 - - - - - - -
31/08:00am 17.0 CALM 0 0 1021.3 - 0.0 - - - - - - -
31/07:30am 16.3 SSW 3 4 1021.2 - 0.0 - - - - - - -
31/07:00am 15.6 SSW 5 6 1020.9 - 0.0 - - - - - - -
31/06:30am 15.5 SSW 4 5 1020.9 - 0.0 - - - - - - -
31/06:00am 16.0 S 4 5 1020.6 - 0.0 - - - - - - -
31/05:30am 15.9 S 4 5 1020.3 - 0.0 - - - - - - -
31/05:00am 15.8 S 3 5 1019.9 - 0.0 - - - - - - -
31/04:30am 15.8 SSW 5 6 1020.1 - 0.0 - - - - - - -
31/04:00am 16.2 SSW 4 5 1019.8 - 0.0 - - - - - - -
31/03:30am 15.8 S 5 5 1020.1 - 0.0 - - - - - - -
31/03:00am 16.0 S 4 5 1020.1 - 0.0 - - - - - - -
31/02:30am 16.0 S 4 5 1020.4 - 0.0 - - - - - - -
31/02:00am 16.4 S 4 5 1020.4 - 0.0 - - - - - - -
31/01:30am 16.6 S 2 3 1020.8 - 0.0 - - - - - - -
31/01:00am 16.8 CALM 0 0 1020.8 - 0.0 - - - - - - -
31/12:30am 17.1 CALM 0 0 1021.1 - 0.0 - - - - - - -
31/12:00am 16.8 S 3 4 1021.0 - 0.0 - - - - - - -
 
Date/Time
EST
Temp

°C
Wind Pressure Rain
since 9am
mm
Weather Cloud Vis
km
Sea
Height
m
Swell
Dir
 
Speed
knots
Gust
knots
hPa Trend Height
m
Period
s
Dir
30/11:30pm 16.6 S 5 6 1021.3 - 0.0 - - - - - - -
30/11:00pm 16.9 CALM 0 0 1021.3 - 0.0 - - - - - - -
30/10:30pm 16.7 CALM 0 0 1021.5 - 0.0 - - - - - - -
30/10:00pm 16.8 NE 1 3 1021.5 - 0.0 - - - - - - -
30/09:30pm 16.7 CALM 0 0 1021.7 - 0.0 - - - - - - -
30/09:00pm 16.8 NE 5 5 1021.5 - 0.0 - - - - - - -
30/08:30pm 17.0 ENE 4 5 1021.6 - 0.0 - - - - - - -
30/08:00pm 17.1 NE 4 5 1021.3 - 0.0 - - - - - - -
30/07:30pm 17.1 NNE 4 5 1021.2 - 0.0 - - - - - - -
30/07:00pm 17.3 NNE 5 7 1020.7 - 0.0 - - - - - - -
30/06:30pm 17.7 NE 5 6 1020.6 - 0.0 - - - - - - -
30/06:00pm 17.9 NE 5 6 1020.1 - 0.0 - - - - - - -
30/05:30pm 18.8 NE 5 9 1020.1 - 0.0 - - - - - - -
30/05:00pm 19.8 NE 6 9 1019.7 - 0.0 - - - - - - -
30/04:30pm 21.4 NE 7 10 1019.9 - 0.0 - - - - - - -
30/04:00pm 22.2 NE 6 9 1019.7 - 0.0 - - - - - - -
30/03:30pm 23.4 NE 7 11 1019.7 - 0.0 - - - - - - -
30/03:00pm 24.8 ENE 6 9 1019.6 - 0.0 - - - - - - -
30/02:30pm 25.4 NE 6 8 1019.9 - 0.0 - - - - - - -
30/02:00pm 25.3 NE 6 8 1020.2 - 0.0 - - - - - - -
30/01:30pm 25.4 NE 6 8 1020.7 - 0.0 - - - - - - -
30/01:00pm 25.8 NE 6 9 1020.9 - 0.0 - - - - - - -
30/12:30pm 25.6 NE 7 9 1021.7 - 0.0 - - - - - - -
30/12:00pm 26.0 NE 5 7 1022.2 - 0.0 - - - - - - -
30/11:30am 23.5 WNW 3 6 1022.9 - 0.0 - - - - - - -
30/11:00am 23.4 WSW 3 6 1023.0 - 0.0 - - - - - - -
30/10:30am 23.7 NNW 4 6 1023.6 - 0.0 - - - - - - -
30/10:00am 21.2 WNW 4 8 1023.6 - 0.0 - - - - - - -
30/09:30am 20.6 W 3 6 1024.1 - 0.0 - - - - - - -
30/09:00am 19.3 CALM 0 4 1023.9 - 0.0 - - - - - - -
30/08:30am 18.2 SW 2 5 1024.1 - 0.0 - - - - - - -
30/08:00am 16.5 SSW 4 6 1023.6 - 0.0 - - - - - - -
30/07:30am 16.0 SSW 4 5 1023.5 - 0.0 - - - - - - -
30/07:00am 15.6 SSW 3 4 1022.9 - 0.0 - - - - - - -
30/06:30am 15.2 SSW 4 5 1022.8 - 0.0 - - - - - - -
30/06:00am 15.4 SSW 5 7 1022.2 - 0.0 - - - - - - -
30/05:30am 15.5 SSW 5 6 1022.1 - 0.0 - - - - - - -
30/05:00am 15.5 SSW 4 6 1021.8 - 0.0 - - - - - - -
30/04:30am 15.5 SSW 3 4 1021.8 - 0.0 - - - - - - -
30/04:00am 15.4 SW 2 4 1021.5 - 0.0 - - - - - - -
30/03:30am 15.2 SSW 4 6 1021.7 - 0.0 - - - - - - -
30/03:00am 15.4 SSW 5 7 1021.6 - 0.0 - - - - - - -
30/02:30am 15.6 SSW 5 6 1021.7 - 0.0 - - - - - - -
30/02:00am 15.5 S 5 7 1021.6 - 0.0 - - - - - - -
30/01:30am 16.0 SSW 4 6 1021.8 - 0.0 - - - - - - -
30/01:00am 16.0 WSW 4 5 1021.6 - 0.0 - - - - - - -
30/12:30am 16.1 WSW 4 5 1022.1 - 0.0 - - - - - - -
30/12:00am 16.5 WSW 4 5 1021.8 - 0.0 - - - - - - -
 
Date/Time
EST
Temp

°C
Wind Pressure Rain
since 9am
mm
Weather Cloud Vis
km
Sea
Height
m
Swell
Dir
 
Speed
knots
Gust
knots
hPa Trend Height
m
Period
s
Dir
29/11:30pm 16.5 SW 4 5 1022.1 - 0.0 - - - - - - -
29/11:00pm 16.8 SSW 4 5 1021.9 - 0.0 - - - - - - -
29/10:30pm 16.7 SW 4 5 1022.2 - 0.0 - - - - - - -
29/10:00pm 16.7 SW 4 5 1022.1 - 0.0 - - - - - - -
29/09:30pm 16.8 SW 4 5 1022.2 - 0.0 - - - - - - -
29/09:00pm 17.3 W 4 5 1021.8 - 0.0 - - - - - - -
29/08:30pm 17.0 W 4 4 1022.0 - 0.0 - - - - - - -
29/08:00pm 17.7 WNW 6 7 1021.7 - 0.0 - - - - - - -
29/07:30pm 17.9 NW 5 6 1021.9 - 0.0 - - - - - - -
29/07:00pm 17.9 N 4 7 1021.3 - 0.0 - - - - - - -
29/06:30pm 17.8 N 4 5 1021.3 - 0.0 - - - - - - -
29/06:00pm 18.3 NNE 5 7 1020.8 - 0.0 - - - - - - -
29/05:30pm 19.1 N 6 11 1020.7 - 0.0 - - - - - - -
29/05:00pm 20.0 N 6 11 1020.1 - 0.0 - - - - - - -
29/04:30pm 21.4 NNE 7 12 1020.0 - 0.0 - - - - - - -
29/04:00pm 21.9 NNE 7 12 1019.7 - 0.0 - - - - - - -
29/03:30pm 22.1 NNE 9 13 1020.0 - 0.0 - - - - - - -
29/03:00pm 22.8 NE 8 13 1019.8 - 0.0 - - - - - - -
29/02:30pm 23.8 NE 8 14 1020.3 - 0.0 - - - - - - -
29/02:00pm 23.7 NE 7 12 1020.3 - 0.0 - - - - - - -
29/01:30pm 23.9 NNE 9 12 1020.7 - 0.0 - - - - - - -
29/01:00pm 25.1 NE 6 11 1020.9 - 0.0 - - - - - - -
29/12:30pm 25.7 NE 6 9 1021.5 - 0.0 - - - - - - -
29/12:00pm 24.6 NE 7 10 1021.8 - 0.0 - - - - - - -
29/11:30am 25.2 NNE 5 8 1022.7 - 0.0 - - - - - - -
29/11:00am 22.6 NNW 5 8 1023.1 - 0.0 - - - - - - -
29/10:30am 21.8 W 2 6 1023.6 - 0.0 - - - - - - -
29/10:00am 21.9 WSW 4 7 1023.8 - 0.0 - - - - - - -
29/09:30am 20.6 SW 4 7 1024.1 - 0.0 - - - - - - -
29/09:00am 18.9 SW 3 5 1023.9 - 0.0 - - - - - - -
29/08:30am 16.9 SW 3 5 1024.1 - 0.0 - - - - - - -
29/08:00am 15.9 SW 3 5 1023.7 - 0.0 - - - - - - -
29/07:30am 15.6 SW 4 6 1023.7 - 0.0 - - - - - - -
29/07:00am 15.3 SSW 5 6 1023.1 - 0.0 - - - - - - -
29/06:30am 15.1 SSW 4 5 1023.1 - 0.0 - - - - - - -
29/06:00am 15.0 SSW 4 6 1022.6 - 0.0 - - - - - - -

Other Formats:

Comma delimited format used in spreadsheet applications
http://www.bom.gov.au/fwo/IDQ60701/IDQ60701.94380.axf

JavaScript Object Notation format (JSON) in row-major order
http://www.bom.gov.au/fwo/IDQ60701/IDQ60701.94380.json